sensor_id;sensor_type;location;lat;lon;timestamp;pressure;altitude;pressure_sealevel;temperature;humidity
58092;BME280;43896;48.178;11.578;2023-04-01T00:00:41;94630.31;;;8.90;62.02
58092;BME280;43896;48.178;11.578;2023-04-01T00:03:07;94677.66;;;9.12;62.35
58092;BME280;43896;48.178;11.578;2023-04-01T00:05:33;94561.88;;;8.47;61.98
58092;BME280;43896;48.178;11.578;2023-04-01T00:07:58;94669.09;;;9.18;61.79
58092;BME280;43896;48.178;11.578;2023-04-01T00:10:23;94586.66;;;8.59;62.48
58092;BME280;43896;48.178;11.578;2023-04-01T00:12:49;94594.09;;;8.71;62.05
58092;BME280;43896;48.178;11.578;2023-04-01T00:15:14;94610.25;;;8.97;62.59
58092;BME280;43896;48.178;11.578;2023-04-01T00:17:40;94654.25;;;9.25;62.54
58092;BME280;43896;48.178;11.578;2023-04-01T00:20:06;94538.91;;;8.49;62.19
58092;BME280;43896;48.178;11.578;2023-04-01T00:22:33;94653.69;;;9.15;62.42
58092;BME280;43896;48.178;11.578;2023-04-01T00:24:59;94643.00;;;9.01;62.65
58092;BME280;43896;48.178;11.578;2023-04-01T00:27:25;94578.50;;;8.77;62.20
58092;BME280;43896;48.178;11.578;2023-04-01T00:29:50;94552.06;;;8.64;61.49
58092;BME280;43896;48.178;11.578;2023-04-01T00:32:15;94536.59;;;8.54;61.97
58092;BME280;43896;48.178;11.578;2023-04-01T00:34:41;94562.75;;;8.77;61.91
58092;BME280;43896;48.178;11.578;2023-04-01T00:37:07;94651.56;;;8.95;62.82
58092;BME280;43896;48.178;11.578;2023-04-01T00:39:33;94528.22;;;8.36;61.99
58092;BME280;43896;48.178;11.578;2023-04-01T00:41:59;94574.00;;;8.48;62.21
58092;BME280;43896;48.178;11.578;2023-04-01T00:44:32;94654.91;;;9.04;62.56
58092;BME280;43896;48.178;11.578;2023-04-01T00:46:59;94647.44;;;9.01;62.46
58092;BME280;43896;48.178;11.578;2023-04-01T00:49:33;94574.28;;;8.53;63.11
58092;BME280;43896;48.178;11.578;2023-04-01T00:52:02;94524.41;;;8.23;62.53
58092;BME280;43896;48.178;11.578;2023-04-01T00:54:30;94553.75;;;8.34;62.84
58092;BME280;43896;48.178;11.578;2023-04-01T00:56:59;94630.31;;;8.90;62.51
58092;BME280;43896;48.178;11.578;2023-04-01T00:59:35;94584.88;;;8.60;62.88
58092;BME280;43896;48.178;11.578;2023-04-01T01:02:03;94650.88;;;9.01;63.26
58092;BME280;43896;48.178;11.578;2023-04-01T01:04:31;94646.53;;;9.09;62.76
58092;BME280;43896;48.178;11.578;2023-04-01T01:13:12;94591.25;;;8.80;62.60
58092;BME280;43896;48.178;11.578;2023-04-01T01:16:06;94578.25;;;8.87;62.20
58092;BME280;43896;48.178;11.578;2023-04-01T01:19:08;94576.47;;;8.64;62.64
58092;BME280;43896;48.178;11.578;2023-04-01T01:24:17;94647.25;;;9.03;63.20
58092;BME280;43896;48.178;11.578;2023-04-01T01:26:55;94635.66;;;8.97;63.98
58092;BME280;43896;48.178;11.578;2023-04-01T01:37:42;94536.59;;;8.54;62.49
58092;BME280;43896;48.178;11.578;2023-04-01T01:40:12;94492.16;;;8.38;61.87
58092;BME280;43896;48.178;11.578;2023-04-01T01:42:42;94561.94;;;8.77;61.62
58092;BME280;43896;48.178;11.578;2023-04-01T01:45:10;94619.31;;;9.10;62.15
58092;BME280;43896;48.178;11.578;2023-04-01T01:47:37;94610.16;;;9.06;62.34
58092;BME280;43896;48.178;11.578;2023-04-01T01:50:03;94570.16;;;8.74;62.44
58092;BME280;43896;48.178;11.578;2023-04-01T01:52:30;94511.47;;;8.45;62.05
58092;BME280;43896;48.178;11.578;2023-04-01T01:54:57;94507.19;;;8.44;62.02
58092;BME280;43896;48.178;11.578;2023-04-01T01:57:27;94622.03;;;9.16;61.91
58092;BME280;43896;48.178;11.578;2023-04-01T01:59:56;94542.50;;;8.71;61.97
58092;BME280;43896;48.178;11.578;2023-04-01T02:02:23;94632.53;;;9.31;62.01
58092;BME280;43896;48.178;11.578;2023-04-01T02:04:51;94577.22;;;8.88;61.37
58092;BME280;43896;48.178;11.578;2023-04-01T02:07:24;94568.09;;;8.84;61.16
58092;BME280;43896;48.178;11.578;2023-04-01T02:09:52;94561.28;;;8.60;61.86
58092;BME280;43896;48.178;11.578;2023-04-01T02:12:19;94517.81;;;8.27;61.52
58092;BME280;43896;48.178;11.578;2023-04-01T02:14:55;94594.22;;;8.77;61.21
58092;BME280;43896;48.178;11.578;2023-04-01T02:17:30;94622.44;;;8.90;61.85
58092;BME280;43896;48.178;11.578;2023-04-01T02:20:00;94551.50;;;8.54;61.13
58092;BME280;43896;48.178;11.578;2023-04-01T02:22:28;94576.47;;;8.18;62.54
58092;BME280;43896;48.178;11.578;2023-04-01T02:24:58;94523.72;;;8.21;62.16
58092;BME280;43896;48.178;11.578;2023-04-01T02:27:24;94556.31;;;8.42;61.85
58092;BME280;43896;48.178;11.578;2023-04-01T02:29:51;94616.78;;;9.01;61.21
58092;BME280;43896;48.178;11.578;2023-04-01T02:32:18;94539.97;;;8.40;61.35
58092;BME280;43896;48.178;11.578;2023-04-01T02:34:44;94551.38;;;8.47;61.40
58092;BME280;43896;48.178;11.578;2023-04-01T02:37:10;94588.06;;;8.85;61.57
58092;BME280;43896;48.178;11.578;2023-04-01T02:39:36;94546.38;;;8.60;61.17
58092;BME280;43896;48.178;11.578;2023-04-01T02:42:02;94636.31;;;9.14;61.07
58092;BME280;43896;48.178;11.578;2023-04-01T02:44:27;94539.66;;;8.43;60.70
58092;BME280;43896;48.178;11.578;2023-04-01T02:46:53;94622.31;;;8.83;61.47
58092;BME280;43896;48.178;11.578;2023-04-01T02:49:18;94559.81;;;8.34;61.90
58092;BME280;43896;48.178;11.578;2023-04-01T02:51:43;94594.28;;;8.69;61.62
58092;BME280;43896;48.178;11.578;2023-04-01T02:54:09;94642.09;;;8.94;61.89
58092;BME280;43896;48.178;11.578;2023-04-01T02:56:34;94626.59;;;8.85;62.01
58092;BME280;43896;48.178;11.578;2023-04-01T02:59:00;94637.06;;;8.85;62.23
58092;BME280;43896;48.178;11.578;2023-04-01T03:01:25;94619.78;;;8.75;61.25
58092;BME280;43896;48.178;11.578;2023-04-01T03:03:51;94664.88;;;9.09;61.72
58092;BME280;43896;48.178;11.578;2023-04-01T03:06:17;94661.41;;;8.93;62.13
58092;BME280;43896;48.178;11.578;2023-04-01T03:08:43;94581.78;;;8.56;61.63
58092;BME280;43896;48.178;11.578;2023-04-01T03:11:09;94673.22;;;9.12;61.61
58092;BME280;43896;48.178;11.578;2023-04-01T03:13:35;94661.28;;;9.10;61.66
58092;BME280;43896;48.178;11.578;2023-04-01T03:16:01;94639.31;;;8.73;61.70
58092;BME280;43896;48.178;11.578;2023-04-01T03:18:26;94596.31;;;8.59;61.48
58092;BME280;43896;48.178;11.578;2023-04-01T03:20:52;94578.34;;;8.33;61.60
58092;BME280;43896;48.178;11.578;2023-04-01T03:23:17;94676.81;;;8.96;62.04
58092;BME280;43896;48.178;11.578;2023-04-01T03:25:44;94621.97;;;8.72;61.47
58092;BME280;43896;48.178;11.578;2023-04-01T03:28:10;94625.44;;;8.87;61.57
58092;BME280;43896;48.178;11.578;2023-04-01T03:30:35;94675.44;;;9.00;61.32
58092;BME280;43896;48.178;11.578;2023-04-01T03:33:01;94669.22;;;9.01;61.36
58092;BME280;43896;48.178;11.578;2023-04-01T03:35:27;94625.22;;;8.74;61.51
58092;BME280;43896;48.178;11.578;2023-04-01T03:37:53;94677.16;;;8.93;61.21
58092;BME280;43896;48.178;11.578;2023-04-01T03:40:19;94680.06;;;8.98;61.56
58092;BME280;43896;48.178;11.578;2023-04-01T03:42:44;94610.09;;;8.30;61.63
58092;BME280;43896;48.178;11.578;2023-04-01T03:45:10;94608.06;;;8.48;61.37
58092;BME280;43896;48.178;11.578;2023-04-01T03:47:37;94681.19;;;8.81;61.19
58092;BME280;43896;48.178;11.578;2023-04-01T03:50:03;94618.25;;;8.43;61.66
58092;BME280;43896;48.178;11.578;2023-04-01T03:52:29;94701.25;;;8.89;61.30
58092;BME280;43896;48.178;11.578;2023-04-01T03:54:54;94694.94;;;8.83;61.65
58092;BME280;43896;48.178;11.578;2023-04-01T03:57:19;94613.00;;;8.43;61.46
58092;BME280;43896;48.178;11.578;2023-04-01T03:59:45;94592.28;;;8.25;61.33
58092;BME280;43896;48.178;11.578;2023-04-01T04:02:10;94673.03;;;8.53;63.32
58092;BME280;43896;48.178;11.578;2023-04-01T04:04:35;94696.28;;;8.79;62.08
58092;BME280;43896;48.178;11.578;2023-04-01T04:07:01;94647.88;;;8.35;62.24
58092;BME280;43896;48.178;11.578;2023-04-01T04:09:26;94606.56;;;8.22;61.75
58092;BME280;43896;48.178;11.578;2023-04-01T04:11:51;94660.09;;;8.51;62.31
58092;BME280;43896;48.178;11.578;2023-04-01T04:14:17;94593.28;;;8.24;62.27
58092;BME280;43896;48.178;11.578;2023-04-01T04:16:42;94610.09;;;8.30;62.47
58092;BME280;43896;48.178;11.578;2023-04-01T04:19:08;94596.66;;;8.10;62.54
58092;BME280;43896;48.178;11.578;2023-04-01T04:21:33;94635.44;;;8.37;62.86
58092;BME280;43896;48.178;11.578;2023-04-01T04:24:02;94637.78;;;8.32;63.41
58092;BME280;43896;48.178;11.578;2023-04-01T04:26:27;94633.63;;;8.38;62.98
58092;BME280;43896;48.178;11.578;2023-04-01T04:28:54;94601.91;;;8.33;62.26
58092;BME280;43896;48.178;11.578;2023-04-01T04:31:21;94605.88;;;8.29;62.81
58092;BME280;43896;48.178;11.578;2023-04-01T04:33:47;94591.41;;;8.10;63.08
58092;BME280;43896;48.178;11.578;2023-04-01T04:36:12;94584.94;;;7.97;63.33
58092;BME280;43896;48.178;11.578;2023-04-01T04:38:38;94593.69;;;8.13;63.02
58092;BME280;43896;48.178;11.578;2023-04-01T04:41:08;94643.31;;;8.37;63.80
58092;BME280;43896;48.178;11.578;2023-04-01T04:43:34;94646.06;;;8.44;62.93
58092;BME280;43896;48.178;11.578;2023-04-01T04:45:59;94664.69;;;8.49;62.93
58092;BME280;43896;48.178;11.578;2023-04-01T04:48:24;94611.97;;;8.21;62.75
58092;BME280;43896;48.178;11.578;2023-04-01T04:50:50;94624.00;;;8.30;63.27
58092;BME280;43896;48.178;11.578;2023-04-01T04:53:17;94702.09;;;8.89;62.89
58092;BME280;43896;48.178;11.578;2023-04-01T04:55:45;94633.53;;;8.54;62.16
58092;BME280;43896;48.178;11.578;2023-04-01T04:58:10;94617.63;;;8.33;62.87
58092;BME280;43896;48.178;11.578;2023-04-01T05:00:36;94712.81;;;9.03;62.41
58092;BME280;43896;48.178;11.578;2023-04-01T05:03:12;94723.06;;;9.12;61.89
58092;BME280;43896;48.178;11.578;2023-04-01T05:05:38;94582.00;;;8.23;61.78
58092;BME280;43896;48.178;11.578;2023-04-01T05:08:04;94607.44;;;8.38;62.09
58092;BME280;43896;48.178;11.578;2023-04-01T05:10:31;94642.41;;;8.53;62.14
58092;BME280;43896;48.178;11.578;2023-04-01T05:12:57;94624.75;;;8.47;62.47
58092;BME280;43896;48.178;11.578;2023-04-01T05:15:23;94670.28;;;8.69;62.09
58092;BME280;43896;48.178;11.578;2023-04-01T05:17:48;94625.81;;;8.30;62.06
58092;BME280;43896;48.178;11.578;2023-04-01T05:20:14;94611.88;;;8.37;61.72
58092;BME280;43896;48.178;11.578;2023-04-01T05:22:40;94648.91;;;8.57;61.89
58092;BME280;43896;48.178;11.578;2023-04-01T05:25:06;94701.16;;;9.05;61.05
58092;BME280;43896;48.178;11.578;2023-04-01T05:27:32;94666.13;;;8.75;61.57
58092;BME280;43896;48.178;11.578;2023-04-01T05:29:58;94701.91;;;9.14;61.06
58092;BME280;43896;48.178;11.578;2023-04-01T05:32:23;94653.69;;;8.77;60.89
58092;BME280;43896;48.178;11.578;2023-04-01T05:34:52;94587.25;;;8.47;60.62
58092;BME280;43896;48.178;11.578;2023-04-01T05:37:20;94642.94;;;8.72;60.41
58092;BME280;43896;48.178;11.578;2023-04-01T05:39:47;94614.50;;;8.60;59.93
58092;BME280;43896;48.178;11.578;2023-04-01T05:42:13;94648.16;;;8.72;60.68
58092;BME280;43896;48.178;11.578;2023-04-01T05:44:38;94638.19;;;8.67;60.78
58092;BME280;43896;48.178;11.578;2023-04-01T05:47:04;94619.25;;;8.34;60.46
58092;BME280;43896;48.178;11.578;2023-04-01T05:49:30;94706.97;;;9.15;60.42
58092;BME280;43896;48.178;11.578;2023-04-01T05:51:56;94648.47;;;8.92;59.39
58092;BME280;43896;48.178;11.578;2023-04-01T05:54:21;94621.22;;;8.78;59.11
58092;BME280;43896;48.178;11.578;2023-04-01T05:56:47;94588.75;;;8.64;59.42
58092;BME280;43896;48.178;11.578;2023-04-01T05:59:13;94649.31;;;8.92;59.27
58092;BME280;43896;48.178;11.578;2023-04-01T06:01:38;94584.47;;;8.48;59.50
58092;BME280;43896;48.178;11.578;2023-04-01T06:04:04;94693.59;;;9.25;58.96
58092;BME280;43896;48.178;11.578;2023-04-01T06:06:31;94617.28;;;8.82;58.99
58092;BME280;43896;48.178;11.578;2023-04-01T06:09:06;94583.41;;;8.57;58.75
58092;BME280;43896;48.178;11.578;2023-04-01T06:14:37;94716.97;;;9.50;58.25
58092;BME280;43896;48.178;11.578;2023-04-01T06:17:12;94711.47;;;9.45;58.29
58092;BME280;43896;48.178;11.578;2023-04-01T06:19:48;94703.50;;;9.53;58.40
58092;BME280;43896;48.178;11.578;2023-04-01T06:28:22;94628.72;;;9.19;57.92
58092;BME280;43896;48.178;11.578;2023-04-01T06:40:06;94714.81;;;9.53;56.79
58092;BME280;43896;48.178;11.578;2023-04-01T06:45:54;94717.00;;;9.80;56.06
58092;BME280;43896;48.178;11.578;2023-04-01T06:48:43;94710.41;;;9.84;56.50
58092;BME280;43896;48.178;11.578;2023-04-01T06:51:30;94711.94;;;9.93;55.66
58092;BME280;43896;48.178;11.578;2023-04-01T06:56:37;94725.03;;;10.23;54.55
58092;BME280;43896;48.178;11.578;2023-04-01T06:59:17;94697.59;;;10.40;54.05
58092;BME280;43896;48.178;11.578;2023-04-01T07:01:49;94725.81;;;10.31;53.59
58092;BME280;43896;48.178;11.578;2023-04-01T07:04:22;94706.88;;;10.06;54.13
58092;BME280;43896;48.178;11.578;2023-04-01T07:06:53;94673.56;;;9.92;54.70
58092;BME280;43896;48.178;11.578;2023-04-01T07:09:24;94733.13;;;10.21;54.39
58092;BME280;43896;48.178;11.578;2023-04-01T07:11:53;94732.50;;;10.04;54.96
58092;BME280;43896;48.178;11.578;2023-04-01T07:14:30;94625.94;;;9.35;55.51
58092;BME280;43896;48.178;11.578;2023-04-01T07:17:07;94734.13;;;9.90;54.85
58092;BME280;43896;48.178;11.578;2023-04-01T07:19:45;94675.97;;;9.93;53.91
58092;BME280;43896;48.178;11.578;2023-04-01T07:22:17;94717.38;;;9.91;55.06
58092;BME280;43896;48.178;11.578;2023-04-01T07:24:47;94712.75;;;10.08;54.43
58092;BME280;43896;48.178;11.578;2023-04-01T07:27:14;94726.38;;;10.48;53.50
58092;BME280;43896;48.178;11.578;2023-04-01T07:29:40;94669.38;;;9.98;53.66
58092;BME280;43896;48.178;11.578;2023-04-01T07:35:09;94696.31;;;10.51;52.67
58092;BME280;43896;48.178;11.578;2023-04-01T07:38:09;94698.03;;;10.29;53.29
58092;BME280;43896;48.178;11.578;2023-04-01T07:51:49;94686.59;;;10.51;53.04
58092;BME280;43896;48.178;11.578;2023-04-01T07:54:34;94707.94;;;10.63;53.10
58092;BME280;43896;48.178;11.578;2023-04-01T07:57:09;94736.19;;;10.40;53.44
58092;BME280;43896;48.178;11.578;2023-04-01T08:00:03;94743.69;;;10.58;54.00
58092;BME280;43896;48.178;11.578;2023-04-01T08:05:27;94736.94;;;10.70;53.32
58092;BME280;43896;48.178;11.578;2023-04-01T08:10:50;94725.13;;;10.81;52.75
58092;BME280;43896;48.178;11.578;2023-04-01T08:13:30;94729.97;;;10.62;52.81
58092;BME280;43896;48.178;11.578;2023-04-01T08:16:20;94726.47;;;10.55;52.98
58092;BME280;43896;48.178;11.578;2023-04-01T08:19:16;94730.22;;;10.46;52.38
58092;BME280;43896;48.178;11.578;2023-04-01T08:21:50;94726.28;;;10.57;52.27
58092;BME280;43896;48.178;11.578;2023-04-01T08:26:53;94676.75;;;10.39;51.70
58092;BME280;43896;48.178;11.578;2023-04-01T08:29:26;94727.53;;;10.97;52.03
58092;BME280;43896;48.178;11.578;2023-04-01T08:32:03;94715.78;;;11.00;51.48
58092;BME280;43896;48.178;11.578;2023-04-01T08:34:38;94715.94;;;11.41;50.77
58092;BME280;43896;48.178;11.578;2023-04-01T08:37:25;94655.78;;;11.38;50.22
58092;BME280;43896;48.178;11.578;2023-04-01T08:40:00;94709.91;;;11.76;48.66
58092;BME280;43896;48.178;11.578;2023-04-01T08:48:19;94689.22;;;10.95;50.31
58092;BME280;43896;48.178;11.578;2023-04-01T08:53:40;94705.38;;;11.63;49.92
58092;BME280;43896;48.178;11.578;2023-04-01T09:01:51;94712.22;;;12.27;48.83
58092;BME280;43896;48.178;11.578;2023-04-01T09:12:51;94720.41;;;12.46;47.44
58092;BME280;43896;48.178;11.578;2023-04-01T09:15:24;94712.41;;;12.74;46.67
58092;BME280;43896;48.178;11.578;2023-04-01T09:20:52;94601.44;;;12.00;45.92
58092;BME280;43896;48.178;11.578;2023-04-01T09:31:57;94658.78;;;11.63;47.63
58092;BME280;43896;48.178;11.578;2023-04-01T09:37:33;94669.56;;;12.04;47.95
58092;BME280;43896;48.178;11.578;2023-04-01T09:56:14;94667.25;;;12.35;47.43
58092;BME280;43896;48.178;11.578;2023-04-01T09:59:14;94641.03;;;12.14;47.14
58092;BME280;43896;48.178;11.578;2023-04-01T10:16:08;94644.38;;;12.56;47.23
58092;BME280;43896;48.178;11.578;2023-04-01T10:18:54;94651.69;;;12.61;46.55
58092;BME280;43896;48.178;11.578;2023-04-01T10:27:14;94594.16;;;12.03;47.61
58092;BME280;43896;48.178;11.578;2023-04-01T10:54:48;94599.88;;;11.71;48.61
58092;BME280;43896;48.178;11.578;2023-04-01T11:02:55;94687.06;;;12.18;50.62
58092;BME280;43896;48.178;11.578;2023-04-01T11:25:07;94692.00;;;12.41;53.46
58092;BME280;43896;48.178;11.578;2023-04-01T11:30:28;94678.22;;;12.46;51.71
58092;BME280;43896;48.178;11.578;2023-04-01T11:33:04;94643.28;;;12.30;51.17
58092;BME280;43896;48.178;11.578;2023-04-01T11:36:03;94699.38;;;12.59;52.25
58092;BME280;43896;48.178;11.578;2023-04-01T11:46:25;94734.34;;;11.35;57.17
58092;BME280;43896;48.178;11.578;2023-04-01T11:49:06;94743.19;;;11.05;57.29
58092;BME280;43896;48.178;11.578;2023-04-01T11:54:13;94739.41;;;10.72;60.06
58092;BME280;43896;48.178;11.578;2023-04-01T11:57:17;94746.78;;;10.46;60.66
58092;BME280;43896;48.178;11.578;2023-04-01T12:00:20;94742.66;;;10.37;61.51
58092;BME280;43896;48.178;11.578;2023-04-01T12:05:49;94747.69;;;10.54;62.79
58092;BME280;43896;48.178;11.578;2023-04-01T12:11:26;94752.13;;;10.53;62.88
58092;BME280;43896;48.178;11.578;2023-04-01T12:16:30;94747.63;;;10.32;64.61
58092;BME280;43896;48.178;11.578;2023-04-01T12:33:17;94737.63;;;10.12;64.32
58092;BME280;43896;48.178;11.578;2023-04-01T12:36:11;94725.78;;;10.17;64.43
58092;BME280;43896;48.178;11.578;2023-04-01T12:50:16;94671.63;;;9.41;63.40
58092;BME280;43896;48.178;11.578;2023-04-01T13:17:08;94727.69;;;9.63;63.82
58092;BME280;43896;48.178;11.578;2023-04-01T13:19:40;94732.47;;;9.74;63.06
58092;BME280;43896;48.178;11.578;2023-04-01T13:22:23;94703.78;;;9.58;63.29
58092;BME280;43896;48.178;11.578;2023-04-01T13:25:13;94744.38;;;9.85;63.17
58092;BME280;43896;48.178;11.578;2023-04-01T13:27:47;94624.53;;;8.95;64.03
58092;BME280;43896;48.178;11.578;2023-04-01T13:30:37;94765.38;;;9.85;63.92
58092;BME280;43896;48.178;11.578;2023-04-01T13:33:27;94757.03;;;9.82;63.93
58092;BME280;43896;48.178;11.578;2023-04-01T13:36:12;94759.66;;;9.97;63.97
58092;BME280;43896;48.178;11.578;2023-04-01T13:39:13;94760.22;;;9.92;64.15
58092;BME280;43896;48.178;11.578;2023-04-01T13:44:23;94672.38;;;9.50;64.80
58092;BME280;43896;48.178;11.578;2023-04-01T13:59:33;94761.56;;;9.88;63.66
58092;BME280;43896;48.178;11.578;2023-04-01T14:05:39;94757.22;;;10.10;63.77
58092;BME280;43896;48.178;11.578;2023-04-01T14:29:27;94759.84;;;10.25;63.27
58092;BME280;43896;48.178;11.578;2023-04-01T14:38:34;94664.69;;;9.63;61.83
58092;BME280;43896;48.178;11.578;2023-04-01T14:41:19;94753.41;;;10.27;62.87
58092;BME280;43896;48.178;11.578;2023-04-01T14:49:39;94755.03;;;10.43;63.36
58092;BME280;43896;48.178;11.578;2023-04-01T14:52:36;94763.66;;;10.37;62.96
58092;BME280;43896;48.178;11.578;2023-04-01T14:55:19;94746.44;;;10.20;63.31
58092;BME280;43896;48.178;11.578;2023-04-01T14:57:58;94752.94;;;10.54;62.36
58092;BME280;43896;48.178;11.578;2023-04-01T15:00:24;94753.06;;;10.45;63.02
58092;BME280;43896;48.178;11.578;2023-04-01T15:03:13;94745.00;;;10.32;62.84
58092;BME280;43896;48.178;11.578;2023-04-01T15:06:00;94731.22;;;10.30;63.34
58092;BME280;43896;48.178;11.578;2023-04-01T15:15:30;94758.06;;;10.40;63.17
58092;BME280;43896;48.178;11.578;2023-04-01T15:18:16;94738.91;;;10.02;63.09
58092;BME280;43896;48.178;11.578;2023-04-01T15:21:18;94766.28;;;10.22;63.45
58092;BME280;43896;48.178;11.578;2023-04-01T15:24:06;94783.22;;;10.20;63.29
58092;BME280;43896;48.178;11.578;2023-04-01T15:38:02;94783.59;;;10.17;63.06
58092;BME280;43896;48.178;11.578;2023-04-01T15:40:53;94797.34;;;10.04;61.60
58092;BME280;43896;48.178;11.578;2023-04-01T15:51:53;94792.84;;;10.42;61.85
58092;BME280;43896;48.178;11.578;2023-04-01T15:57:15;94791.84;;;10.43;61.49
58092;BME280;43896;48.178;11.578;2023-04-01T16:00:06;94803.09;;;10.37;60.57
58092;BME280;43896;48.178;11.578;2023-04-01T16:02:48;94799.97;;;10.48;60.11
58092;BME280;43896;48.178;11.578;2023-04-01T16:05:35;94786.78;;;10.42;58.69
58092;BME280;43896;48.178;11.578;2023-04-01T16:09:01;94794.28;;;10.45;57.96
58092;BME280;43896;48.178;11.578;2023-04-01T16:11:36;94795.44;;;10.27;57.44
58092;BME280;43896;48.178;11.578;2023-04-01T16:17:14;94780.06;;;10.39;57.65
58092;BME280;43896;48.178;11.578;2023-04-01T16:20:20;94788.22;;;10.44;57.71
58092;BME280;43896;48.178;11.578;2023-04-01T16:23:02;94797.44;;;10.55;57.06
58092;BME280;43896;48.178;11.578;2023-04-01T16:25:40;94789.19;;;10.43;57.84
58092;BME280;43896;48.178;11.578;2023-04-01T16:28:29;94794.53;;;10.50;57.14
58092;BME280;43896;48.178;11.578;2023-04-01T16:33:47;94795.56;;;10.34;57.65
58092;BME280;43896;48.178;11.578;2023-04-01T16:36:51;94790.84;;;10.44;56.92
58092;BME280;43896;48.178;11.578;2023-04-01T16:39:21;94792.75;;;10.36;57.18
58092;BME280;43896;48.178;11.578;2023-04-01T16:44:23;94696.09;;;9.86;56.38
58092;BME280;43896;48.178;11.578;2023-04-01T16:46:52;94792.22;;;10.40;57.29
58092;BME280;43896;48.178;11.578;2023-04-01T16:49:29;94782.25;;;10.36;56.41
58092;BME280;43896;48.178;11.578;2023-04-01T17:00:16;94799.81;;;10.50;55.89
58092;BME280;43896;48.178;11.578;2023-04-01T17:02:50;94809.69;;;10.48;55.66
58092;BME280;43896;48.178;11.578;2023-04-01T17:05:20;94817.94;;;10.45;56.03
58092;BME280;43896;48.178;11.578;2023-04-01T17:08:22;94806.41;;;10.31;56.15
58092;BME280;43896;48.178;11.578;2023-04-01T17:10:59;94728.31;;;9.65;55.80
58092;BME280;43896;48.178;11.578;2023-04-01T17:16:28;94827.72;;;10.21;55.73
58092;BME280;43896;48.178;11.578;2023-04-01T17:22:27;94825.91;;;10.22;55.01
58092;BME280;43896;48.178;11.578;2023-04-01T17:25:02;94827.25;;;10.18;56.10
58092;BME280;43896;48.178;11.578;2023-04-01T17:27:40;94836.22;;;10.08;55.93
58092;BME280;43896;48.178;11.578;2023-04-01T17:30:42;94830.03;;;10.01;55.92
58092;BME280;43896;48.178;11.578;2023-04-01T17:41:41;94809.13;;;10.23;54.91
58092;BME280;43896;48.178;11.578;2023-04-01T17:49:48;94842.72;;;10.12;55.53
58092;BME280;43896;48.178;11.578;2023-04-01T17:52:31;94848.63;;;10.14;55.52
58092;BME280;43896;48.178;11.578;2023-04-01T17:55:32;94824.25;;;10.06;55.57
58092;BME280;43896;48.178;11.578;2023-04-01T17:58:35;94849.38;;;10.23;55.79
58092;BME280;43896;48.178;11.578;2023-04-01T18:01:14;94836.06;;;10.25;55.13
58092;BME280;43896;48.178;11.578;2023-04-01T18:09:28;94861.59;;;10.16;55.16
58092;BME280;43896;48.178;11.578;2023-04-01T18:17:36;94868.56;;;10.24;55.08
58092;BME280;43896;48.178;11.578;2023-04-01T18:25:41;94860.31;;;10.12;55.22
58092;BME280;43896;48.178;11.578;2023-04-01T18:28:22;94877.63;;;10.21;56.06
58092;BME280;43896;48.178;11.578;2023-04-01T18:30:55;94878.63;;;10.20;55.38
58092;BME280;43896;48.178;11.578;2023-04-01T18:33:31;94869.38;;;10.24;55.76
58092;BME280;43896;48.178;11.578;2023-04-01T18:36:13;94885.25;;;10.31;56.22
58092;BME280;43896;48.178;11.578;2023-04-01T18:39:30;94811.34;;;9.81;56.99
58092;BME280;43896;48.178;11.578;2023-04-01T18:41:39;94813.69;;;9.76;57.32
58092;BME280;43896;48.178;11.578;2023-04-01T18:44:43;94888.50;;;10.18;57.30
58092;BME280;43896;48.178;11.578;2023-04-01T18:50:25;94894.19;;;10.07;56.86
58092;BME280;43896;48.178;11.578;2023-04-01T18:52:59;94884.84;;;10.04;57.37
58092;BME280;43896;48.178;11.578;2023-04-01T18:55:39;94879.97;;;10.01;56.53
58092;BME280;43896;48.178;11.578;2023-04-01T19:00:42;94831.22;;;9.61;57.50
58092;BME280;43896;48.178;11.578;2023-04-01T19:03:22;94882.97;;;10.13;57.30
58092;BME280;43896;48.178;11.578;2023-04-01T19:05:53;94919.47;;;10.23;56.85
58092;BME280;43896;48.178;11.578;2023-04-01T19:08:27;94866.31;;;9.83;57.75
58092;BME280;43896;48.178;11.578;2023-04-01T19:16:32;94865.72;;;9.95;58.09
58092;BME280;43896;48.178;11.578;2023-04-01T19:30:33;94933.88;;;10.12;59.06
58092;BME280;43896;48.178;11.578;2023-04-01T19:35:45;94952.97;;;10.06;59.24
58092;BME280;43896;48.178;11.578;2023-04-01T19:38:21;94952.53;;;10.02;59.78
58092;BME280;43896;48.178;11.578;2023-04-01T19:46:33;94880.13;;;9.62;59.59
58092;BME280;43896;48.178;11.578;2023-04-01T20:00:24;94955.44;;;9.84;60.01
58092;BME280;43896;48.178;11.578;2023-04-01T20:02:58;94886.31;;;9.46;59.77
58092;BME280;43896;48.178;11.578;2023-04-01T20:05:54;94954.63;;;9.84;59.77
58092;BME280;43896;48.178;11.578;2023-04-01T20:24:51;94937.41;;;9.58;60.24
58092;BME280;43896;48.178;11.578;2023-04-01T20:27:20;94960.16;;;9.66;60.04
58092;BME280;43896;48.178;11.578;2023-04-01T20:30:19;94981.56;;;9.77;59.68
58092;BME280;43896;48.178;11.578;2023-04-01T20:36:30;94869.59;;;9.15;59.65
58092;BME280;43896;48.178;11.578;2023-04-01T20:45:10;94997.75;;;9.66;60.50
58092;BME280;43896;48.178;11.578;2023-04-01T20:50:44;94882.97;;;8.97;60.41
58092;BME280;43896;48.178;11.578;2023-04-01T20:53:35;94969.28;;;9.47;60.43
58092;BME280;43896;48.178;11.578;2023-04-01T21:01:41;94973.13;;;9.59;60.10
58092;BME280;43896;48.178;11.578;2023-04-01T21:09:51;95000.59;;;9.48;60.79
58092;BME280;43896;48.178;11.578;2023-04-01T21:15:21;94996.97;;;9.57;60.13
58092;BME280;43896;48.178;11.578;2023-04-01T21:20:49;95006.25;;;9.68;60.26
58092;BME280;43896;48.178;11.578;2023-04-01T21:34:42;94927.19;;;9.00;60.14
58092;BME280;43896;48.178;11.578;2023-04-01T21:40:12;95031.94;;;9.50;60.52
58092;BME280;43896;48.178;11.578;2023-04-01T21:42:52;95015.84;;;9.53;60.63
58092;BME280;43896;48.178;11.578;2023-04-01T21:56:43;94999.78;;;9.48;60.65
58092;BME280;43896;48.178;11.578;2023-04-01T22:08:31;95045.31;;;9.63;60.59